This is the latest recevied weather packets stored in our database for station/object YU4PTT-8. If no packets are shown the sender has not sent any weather packets the latest 10 day(s).
| Time | Temp. | Humidity | Pressure | Rain* | Wind** | Luminosity | Snow |
|---|---|---|---|---|---|---|---|
| 1777472928 | 5.56° C | 96% | 1007.8 hPa | 0 mm | 1.79 m/s, 338° | - | - |
| 1777471099 | 6.11° C | 95% | 1007.8 hPa | 0.51 mm | 0.89 m/s, 0° | - | - |
| 1777468698 | 6.67° C | 91% | 1008 hPa | 0 mm | 2.24 m/s, 338° | - | - |
| 1777466328 | 8.33° C | 87% | 1007.8 hPa | 0 mm | 0.89 m/s, 22° | - | - |
| 1777464498 | 9.44° C | 73% | 1008.1 hPa | 0 mm | 2.24 m/s, 22° | - | - |
| 1777462099 | 10.56° C | 69% | 1008 hPa | 0 mm | 3.58 m/s, 338° | - | - |
| 1777459758 | 10.56° C | 69% | 1008 hPa | 0 mm | 1.79 m/s, 90° | - | - |
| 1777457358 | 10.56° C | 56% | 1008.3 hPa | 0 mm | 1.79 m/s, 90° | - | - |
| 1777454959 | 9.44° C | 68% | 1008.4 hPa | 0 mm | 1.79 m/s, 45° | - | - |
| 1777452558 | 10° C | 63% | 1008.2 hPa | 0 mm | 1.79 m/s, 45° | - | - |
| 1777450158 | 9.44° C | 63% | 1008 hPa | 0 mm | 0.89 m/s, 68° | - | - |
| 1777447758 | 10° C | 56% | 1007.6 hPa | 0 mm | 0 m/s | - | - |
| 1777445359 | 9.44° C | 59% | 1007.7 hPa | 0 mm | 0 m/s | - | - |
| 1777442988 | 9.44° C | 57% | 1007.5 hPa | 0 mm | 1.79 m/s, 68° | - | - |
| 1777440588 | 9.44° C | 60% | 1007.1 hPa | 0 mm | 0 m/s | - | - |
| 1777438758 | 8.89° C | 57% | 1007 hPa | 0 mm | 0.45 m/s, 45° | - | - |
| 1777436359 | 8.33° C | 57% | 1007 hPa | 0 mm | 0 m/s | - | - |
| 1777433958 | 8.33° C | 62% | 1006.8 hPa | 0 mm | 0.45 m/s, 0° | - | - |
| 1777431558 | 8.33° C | 64% | 1006.7 hPa | 0 mm | 0.89 m/s, 0° | - | - |
| 1777429188 | 7.78° C | 81% | 1006.6 hPa | 0 mm | 0 m/s | - | - |
| 1777427358 | 8.33° C | 87% | 1006.5 hPa | 0 mm | 0 m/s | - | - |
| 1777424958 | 9.44° C | 80% | 1006.3 hPa | 0 mm | 0 m/s | - | - |
| 1777423158 | 9.44° C | 77% | 1006.6 hPa | 0 mm | 0 m/s | - | - |
| 1777420759 | 7.22° C | 73% | 1007.1 hPa | 0.51 mm | 0 m/s | - | - |
| 1777418358 | 7.22° C | 70% | 1007.1 hPa | 0 mm | 0 m/s | - | - |
* Rain latest hour (hover to see other rain measurements)
** Current wind speed in m/s (hover to see current wind gust speed)